Time;durP1;ratioP1;P1;durP2;ratioP2;P2;SDS_P1;SDS_P2;PMS_P1;PMS_P2;Temp;Humidity;BMP_temperature;BMP_pressure;BME280_temperature;BME280_humidity;BME280_pressure;Samples;Min_cycle;Max_cycle;Signal;HPM_P1;HPM_P2
2021/12/16 00:01:47;;;;;;;21.00;10.50;;;;;;;1.68;84.23;101382.09;1710434;82;21170;-63
2021/12/16 00:29:52;;;;;;;17.27;8.78;;;;;;;1.74;83.63;101387.03;1732389;82;21150;-61
2021/12/16 00:32:17;;;;;;;20.65;10.65;;;;;;;1.75;83.64;101386.55;1727270;83;21150;-64
2021/12/16 00:34:29;;;;;;;;;;;;;;;1.76;83.64;101381.52;1725635;83;21280;-60
2021/12/16 00:36:58;;;;;;;19.90;9.40;;;;;;;1.78;83.72;101381.77;1719964;83;20180;-62
2021/12/16 00:39:32;;;;;;;19.02;9.93;;;;;;;1.77;83.68;101376.48;1691278;83;21660;-61
2021/12/16 00:42:08;;;;;;;17.17;8.80;;;;;;;1.68;83.73;101375.83;1719855;83;21280;-63
2021/12/16 00:50:06;;;;;;;19.07;9.98;;;;;;;1.68;83.79;101366.38;1719892;83;21220;-66
2021/12/16 00:58:03;;;;;;;20.27;9.48;;;;;;;1.62;83.86;101354.69;1691295;85;21545;-62
2021/12/16 01:00:33;;;;;;;19.32;9.15;;;;;;;1.61;83.85;101358.37;1695895;84;21205;-62
2021/12/16 01:03:16;;;;;;;21.95;10.95;;;;;;;1.62;84.03;101351.98;1691444;84;21127;-62
2021/12/16 01:08:41;;;;;;;25.55;11.60;;;;;;;1.58;84.15;101352.22;1740540;82;21134;-61
2021/12/16 01:34:01;;;;;;;22.10;9.55;;;;;;;1.48;84.65;101328.23;1710709;84;21143;-63
2021/12/16 01:36:43;;;;;;;22.82;9.30;;;;;;;1.41;84.65;101322.94;1710624;84;21174;-62
2021/12/16 01:42:28;;;;;;;21.10;9.48;;;;;;;1.34;84.97;101320.33;1710520;84;21122;-62
2021/12/16 01:49:53;;;;;;;23.65;10.25;;;;;;;1.41;85.38;101324.77;1735006;82;21591;-62
2021/12/16 01:55:11;;;;;;;23.22;9.88;;;;;;;1.37;85.47;101318.74;1735062;83;21167;-62
2021/12/16 01:57:50;;;;;;;20.40;9.58;;;;;;;1.43;85.57;101322.81;1735099;83;21129;-62
2021/12/16 02:00:43;;;;;;;23.45;10.32;;;;;;;1.45;85.56;101320.38;1707443;83;21578;-62
2021/12/16 02:03:06;;;;;;;24.15;10.13;;;;;;;1.44;85.55;101324.54;1720604;82;21182;-63
2021/12/16 02:06:03;;;;;;;23.55;10.72;;;;;;;1.44;85.65;101330.80;1634558;86;21339;-62
2021/12/16 02:08:32;;;;;;;23.20;10.10;;;;;;;1.47;85.68;101331.92;1635058;87;21206;-62
2021/12/16 02:27:42;;;;;;;25.97;10.93;;;;;;;1.56;85.49;101311.45;1685566;84;21306;-61
2021/12/16 02:35:30;;;;;;;26.15;11.30;;;;;;;1.69;85.39;101294.67;1648724;86;21566;-61
2021/12/16 02:37:49;;;;;;;25.97;10.63;;;;;;;1.68;85.33;101288.03;1655119;86;21190;-61
2021/12/16 02:40:19;;;;;;;25.37;10.55;;;;;;;1.68;85.33;101279.93;1631359;85;21265;-61
2021/12/16 02:42:57;;;;;;;26.87;10.65;;;;;;;1.73;85.32;101274.55;1652820;85;21643;-61
2021/12/16 02:51:17;;;;;;;40.23;19.62;;;;;;;1.76;84.97;101258.58;1680635;84;21127;-62
2021/12/16 02:53:50;;;;;;;33.65;15.15;;;;;;;1.71;85.00;101264.83;1680571;85;21163;-62
2021/12/16 02:56:20;;;;;;;32.03;15.43;;;;;;;1.72;85.02;101262.02;1717627;83;21185;-62
2021/12/16 02:58:53;;;;;;;35.60;17.12;;;;;;;1.77;85.05;101265.70;1666221;85;21171;-62
2021/12/16 03:01:42;;;;;;;34.03;14.45;;;;;;;1.80;85.06;101273.08;1663581;86;21627;-62
2021/12/16 03:04:14;;;;;;;31.10;12.75;;;;;;;1.80;85.03;101270.87;1643907;85;21178;-63
2021/12/16 03:06:47;;;;;;;35.60;12.75;;;;;;;1.78;84.99;101270.13;1667712;86;21648;-61
2021/12/16 03:09:18;;;;;;;30.68;12.65;;;;;;;1.76;84.96;101266.69;1644855;86;21189;-61
2021/12/16 03:14:44;;;;;;;32.15;13.85;;;;;;;1.73;84.88;101261.52;1672055;86;21596;-61
2021/12/16 03:17:25;;;;;;;28.77;11.03;;;;;;;1.69;84.90;101264.09;1671318;86;21270;-61
2021/12/16 03:25:33;;;;;;;30.52;12.55;;;;;;;1.66;85.12;101273.30;1697055;84;22117;-62
2021/12/16 03:33:53;;;;;;;30.48;13.32;;;;;;;1.58;85.31;101262.23;1696268;84;21280;-63
2021/12/16 03:38:46;;;;;;;33.40;13.80;;;;;;;1.61;85.34;101265.18;1697201;84;21522;-61
2021/12/16 03:41:15;;;;;;;30.10;12.95;;;;;;;1.64;85.40;101273.05;1699535;83;21154;-60
2021/12/16 03:43:47;;;;;;;34.20;13.68;;;;;;;1.64;85.42;101262.24;1702951;84;21169;-62
2021/12/16 03:46:26;;;;;;;27.82;12.30;;;;;;;1.65;85.46;101259.91;1668486;86;21147;-62
2021/12/16 03:49:14;;;;;;;27.27;11.78;;;;;;;1.67;85.57;101255.25;1668852;84;21247;-62
2021/12/16 03:52:00;;;;;;;26.27;11.75;;;;;;;1.69;85.58;101248.75;1694413;84;21252;-61
2021/12/16 03:54:34;;;;;;;27.50;11.05;;;;;;;1.75;85.43;101244.70;1668642;84;21288;-62
2021/12/16 03:57:06;;;;;;;25.50;11.33;;;;;;;1.74;85.36;101234.38;1668898;84;21267;-62
2021/12/16 03:59:38;;;;;;;28.45;11.78;;;;;;;1.77;85.27;101227.88;1696814;84;21279;-62
2021/12/16 04:02:20;;;;;;;27.05;11.70;;;;;;;1.75;85.14;101236.59;1695136;84;22186;-61
2021/12/16 04:04:51;;;;;;;35.10;14.83;;;;;;;1.78;85.16;101232.30;1686306;84;21182;-60
2021/12/16 04:07:24;;;;;;;37.00;14.38;;;;;;;1.82;85.10;101230.59;1739156;82;21153;-60
2021/12/16 04:09:58;;;;;;;28.30;11.68;;;;;;;1.83;85.05;101229.61;1737306;82;21114;-62
2021/12/16 04:12:29;;;;;;;31.15;13.70;;;;;;;1.85;85.05;101232.19;1739381;82;21648;-61
2021/12/16 04:14:59;;;;;;;43.00;17.80;;;;;;;1.85;84.99;101228.14;1741215;81;21127;-62
2021/12/16 04:17:32;;;;;;;38.35;15.65;;;;;;;1.83;84.89;101231.45;1741690;82;21200;-61
2021/12/16 04:20:08;;;;;;;35.73;14.25;;;;;;;1.82;84.86;101231.08;1733167;82;21136;-62
2021/12/16 04:22:43;;;;;;;35.60;14.03;;;;;;;1.83;84.93;101222.85;1671072;84;21133;-61
2021/12/16 04:25:30;;;;;;;37.05;14.68;;;;;;;1.83;84.92;101224.20;1723653;82;21166;-62
2021/12/16 04:28:06;;;;;;;38.55;15.70;;;;;;;1.81;84.95;101215.36;1731531;83;21159;-62
2021/12/16 04:30:36;;;;;;;35.03;14.30;;;;;;;1.79;84.97;101213.77;1731515;83;21162;-63
2021/12/16 04:33:06;;;;;;;30.40;12.70;;;;;;;1.79;85.02;101207.01;1729325;82;21109;-63
2021/12/16 04:35:37;;;;;;;34.53;13.65;;;;;;;1.83;84.97;101209.83;1718370;83;21154;-62
2021/12/16 04:38:07;;;;;;;35.92;14.40;;;;;;;1.82;84.81;101203.57;1673798;82;21151;-60
2021/12/16 04:40:43;;;;;;;31.90;13.45;;;;;;;1.81;84.85;101199.14;1723071;82;21158;-61
2021/12/16 04:43:18;;;;;;;36.48;14.13;;;;;;;1.83;84.88;101199.02;1749804;82;21174;-62
2021/12/16 04:45:45;;;;;;;37.35;14.98;;;;;;;1.81;84.79;101199.64;1744420;82;21162;-62
2021/12/16 04:48:15;;;;;;;41.77;14.80;;;;;;;1.81;84.86;101201.84;1749462;82;21150;-63
2021/12/16 04:50:45;;;;;;;44.73;14.33;;;;;;;1.79;84.76;101199.76;1738994;82;21131;-61
2021/12/16 04:53:15;;;;;;;37.65;14.78;;;;;;;1.79;84.79;101201.60;1710787;83;21183;-61
2021/12/16 04:55:46;;;;;;;47.10;21.07;;;;;;;1.81;84.82;101196.94;1731766;82;21091;-62
2021/12/16 04:58:14;;;;;;;46.37;20.02;;;;;;;1.82;84.83;101200.87;1719029;83;21121;-61
2021/12/16 05:00:44;;;;;;;45.83;18.57;;;;;;;1.80;84.76;101196.56;1715669;83;21658;-61
2021/12/16 05:03:14;;;;;;;43.80;16.10;;;;;;;1.77;84.67;101199.02;1714901;83;21149;-63
2021/12/16 05:05:44;;;;;;;45.23;15.28;;;;;;;1.76;84.61;101195.95;1715691;83;21112;-62
2021/12/16 05:08:14;;;;;;;44.83;15.93;;;;;;;1.75;84.58;101202.83;1715973;83;21553;-62
2021/12/16 05:10:47;;;;;;;43.28;15.20;;;;;;;1.78;84.66;101202.09;1716573;83;21278;-61
2021/12/16 05:13:21;;;;;;;39.05;13.98;;;;;;;1.81;84.75;101195.59;1718732;83;21080;-61
2021/12/16 05:15:49;;;;;;;37.70;13.65;;;;;;;1.84;84.77;101192.15;1719830;83;21516;-61
2021/12/16 05:18:25;;;;;;;38.23;13.22;;;;;;;1.86;84.64;101198.30;1715337;84;21077;-62
2021/12/16 05:20:52;;;;;;;33.88;13.38;;;;;;;1.86;84.55;101194.23;1715337;84;21120;-61
2021/12/16 05:28:54;;;;;;;36.88;13.90;;;;;;;1.86;84.45;101202.84;1741687;82;21115;-62
2021/12/16 05:31:25;;;;;;;36.77;14.75;;;;;;;1.86;84.46;101210.45;1749675;81;21118;-62
2021/12/16 05:33:55;;;;;;;37.63;13.98;;;;;;;1.88;84.49;101214.38;1749538;82;21481;-61
2021/12/16 05:36:24;;;;;;;36.58;13.98;;;;;;;1.91;84.44;101210.08;1749853;82;21149;-62
2021/12/16 05:38:53;;;;;;;35.40;13.90;;;;;;;1.91;84.38;101207.38;1750038;82;21490;-62
2021/12/16 05:41:23;;;;;;;35.25;13.95;;;;;;;1.91;84.38;101202.84;1743565;82;21186;-61
2021/12/16 05:43:55;;;;;;;40.30;14.18;;;;;;;1.90;84.34;101203.82;1731181;82;21146;-63
2021/12/16 05:46:27;;;;;;;33.35;13.08;;;;;;;1.90;84.29;101202.96;1725186;83;21263;-62
2021/12/16 05:49:00;;;;;;;34.80;13.48;;;;;;;1.91;84.22;101201.98;1715747;83;21261;-62
2021/12/16 05:51:35;;;;;;;29.82;12.70;;;;;;;1.93;84.16;101205.41;1715811;84;21654;-62
2021/12/16 05:54:05;;;;;;;34.15;14.25;;;;;;;1.97;83.92;101202.87;1715561;84;21609;-62
2021/12/16 05:56:41;;;;;;;36.13;14.95;;;;;;;1.97;83.81;101195.25;1728814;82;21670;-64
2021/12/16 05:59:13;;;;;;;35.15;14.28;;;;;;;1.96;83.75;101191.69;1731092;82;21119;-65
2021/12/16 06:01:42;;;;;;;42.03;15.10;;;;;;;1.98;83.67;101192.92;1710940;83;21163;-63
2021/12/16 06:04:11;;;;;;;38.50;14.75;;;;;;;1.99;83.68;101194.15;1712817;82;21134;-63
2021/12/16 06:06:42;;;;;;;35.33;13.80;;;;;;;2.01;83.62;101192.18;1752864;82;21206;-64
2021/12/16 06:09:12;;;;;;;41.37;16.55;;;;;;;2.02;83.49;101183.58;1752434;82;21165;-64
2021/12/16 06:11:44;;;;;;;33.05;14.13;;;;;;;2.00;83.46;101194.52;1729355;82;21068;-62
2021/12/16 06:14:22;;;;;;;42.83;15.88;;;;;;;2.01;83.43;101194.89;1725502;83;21156;-63
2021/12/16 06:23:03;;;;;;;40.92;15.35;;;;;;;2.03;83.27;101185.30;1725814;83;21120;-63
2021/12/16 06:28:02;;;;;;;50.90;20.02;;;;;;;2.02;83.33;101178.17;1710150;84;21159;-64
2021/12/16 06:30:33;;;;;;;53.13;21.55;;;;;;;2.06;83.34;101158.02;1680927;84;21128;-64
2021/12/16 06:33:07;;;;;;;44.42;17.32;;;;;;;2.05;83.20;101168.47;1608363;88;21641;-64
2021/12/16 06:35:36;;;;;;;37.75;15.03;;;;;;;2.04;83.22;101156.80;1608364;89;21259;-62
2021/12/16 06:38:05;;;;;;;41.88;17.32;;;;;;;2.08;83.16;101154.70;1646345;85;21664;-63
2021/12/16 06:40:36;;;;;;;37.30;15.58;;;;;;;2.04;82.84;101156.80;1631837;88;21601;-63
2021/12/16 06:43:28;;;;;;;40.52;16.42;;;;;;;1.98;82.80;101145.13;1625326;87;21695;-64
2021/12/16 06:45:58;;;;;;;38.40;14.63;;;;;;;1.98;83.00;101157.78;1647990;87;21640;-63
2021/12/16 06:48:31;;;;;;;45.83;16.73;;;;;;;2.00;83.03;101152.63;1648042;87;21580;-63
2021/12/16 06:51:18;;;;;;;37.80;16.02;;;;;;;2.03;82.82;101143.41;1678689;82;21244;-63
2021/12/16 06:53:53;;;;;;;43.68;16.52;;;;;;;2.07;82.77;101148.44;1711779;82;21551;-62
2021/12/16 06:56:29;;;;;;;44.48;17.42;;;;;;;2.09;82.81;101149.17;1739486;82;21522;-64
2021/12/16 06:59:10;;;;;;;40.10;15.13;;;;;;;2.09;82.66;101142.91;1739177;82;21276;-62
2021/12/16 07:01:40;;;;;;;42.90;17.70;;;;;;;2.10;82.68;101147.33;1697285;83;21101;-64
2021/12/16 07:04:12;;;;;;;30.95;12.75;;;;;;;2.12;82.59;101148.92;1724094;83;21224;-63
2021/12/16 07:06:42;;;;;;;37.08;15.43;;;;;;;2.15;82.54;101139.70;1728590;82;21119;-62
2021/12/16 07:09:15;;;;;;;35.58;13.85;;;;;;;2.12;82.17;101136.76;1731823;83;21249;-63
2021/12/16 07:11:50;;;;;;;37.63;13.93;;;;;;;2.11;82.22;101135.04;1711591;83;21150;-63
2021/12/16 07:14:23;;;;;;;40.95;15.38;;;;;;;2.09;82.02;101137.02;1710722;83;21727;-63
2021/12/16 07:16:54;;;;;;;45.50;15.05;;;;;;;2.07;82.11;101135.41;1731608;83;21183;-62
2021/12/16 07:19:23;;;;;;;52.33;16.57;;;;;;;2.05;82.12;101142.30;1701310;83;21106;-63
2021/12/16 07:21:52;;;;;;;35.58;15.00;;;;;;;2.06;82.21;101129.64;1716834;83;21118;-63
2021/12/16 07:24:21;;;;;;;38.25;15.75;;;;;;;2.09;82.21;101131.61;1716916;83;21288;-64
2021/12/16 07:26:49;;;;;;;33.58;14.73;;;;;;;2.06;82.23;101131.86;1717065;83;21811;-63
2021/12/16 07:29:18;;;;;;;37.70;14.90;;;;;;;2.10;82.38;101117.10;1716896;83;21638;-64
2021/12/16 07:31:47;;;;;;;31.55;13.30;;;;;;;2.14;82.48;101113.16;1716839;83;21237;-67
2021/12/16 07:34:16;;;;;;;33.25;13.03;;;;;;;2.18;82.35;101113.28;1716303;83;21580;-64
2021/12/16 07:36:45;;;;;;;32.67;12.78;;;;;;;2.21;82.29;101117.57;1716560;82;21594;-63
2021/12/16 07:39:17;;;;;;;35.58;14.15;;;;;;;2.23;82.35;101104.30;1731522;82;21660;-63
2021/12/16 07:41:48;;;;;;;47.00;15.23;;;;;;;2.25;82.21;101101.95;1731660;83;21167;-63
2021/12/16 07:44:17;;;;;;;57.75;17.00;;;;;;;2.23;82.17;101098.89;1731601;83;21223;-64
2021/12/16 07:46:56;;;;;;;41.40;13.60;;;;;;;2.23;82.17;101102.94;1731537;83;21174;-63
2021/12/16 07:49:29;;;;;;;42.55;15.05;;;;;;;2.27;82.19;101106.25;1740410;82;21162;-62
2021/12/16 07:51:58;;;;;;;59.30;18.45;;;;;;;2.30;82.17;101088.91;1741484;82;21241;-63
2021/12/16 07:54:27;;;;;;;42.93;15.55;;;;;;;2.28;82.09;101086.83;1741472;82;21099;-64
2021/12/16 07:56:57;;;;;;;37.53;15.43;;;;;;;2.25;82.21;101089.30;1741763;82;21202;-64
2021/12/16 07:59:27;;;;;;;85.20;21.10;;;;;;;2.20;82.21;101081.56;1741396;82;21166;-63
2021/12/16 08:01:56;;;;;;;37.80;16.27;;;;;;;2.16;82.39;101088.22;1739076;82;21708;-63
2021/12/16 08:04:31;;;;;;;56.00;17.95;;;;;;;2.17;82.54;101076.41;1727558;82;21608;-62
2021/12/16 08:07:04;;;;;;;42.43;17.15;;;;;;;2.21;82.58;101087.34;1696160;83;21284;-63
2021/12/16 08:09:40;;;;;;;39.83;16.45;;;;;;;2.21;82.66;101083.28;1663320;86;21253;-63
2021/12/16 08:12:06;;;;;;;44.90;17.67;;;;;;;2.27;82.78;101099.98;1684843;85;21218;-63
2021/12/16 08:14:34;;;;;;;43.83;18.23;;;;;;;2.29;82.76;101103.42;1663269;86;21265;-63
2021/12/16 08:17:04;;;;;;;35.92;14.40;;;;;;;2.27;82.70;101087.81;1635304;86;21690;-64
2021/12/16 08:19:36;;;;;;;44.75;16.32;;;;;;;2.27;82.75;101098.63;1685267;85;21174;-63
2021/12/16 08:22:05;;;;;;;43.42;14.78;;;;;;;2.25;82.74;101089.30;1663285;86;21194;-63
2021/12/16 08:24:36;;;;;;;40.75;15.95;;;;;;;2.26;82.84;101084.75;1638537;86;21107;-64
2021/12/16 08:27:08;;;;;;;48.63;16.00;;;;;;;2.29;82.96;101079.08;1674312;86;21146;-63
2021/12/16 08:29:37;;;;;;;40.60;15.13;;;;;;;2.32;83.14;101078.83;1676912;85;21111;-64
2021/12/16 08:32:06;;;;;;;44.35;15.90;;;;;;;2.34;83.02;101072.80;1688450;85;21324;-63
2021/12/16 08:34:37;;;;;;;47.13;15.93;;;;;;;2.31;83.01;101077.97;1673494;86;21181;-63
2021/12/16 08:37:07;;;;;;;42.40;17.15;;;;;;;2.37;83.18;101072.05;1673265;86;21186;-64
2021/12/16 08:39:37;;;;;;;56.20;17.20;;;;;;;2.41;83.14;101067.23;1673296;85;21114;-63
2021/12/16 08:42:07;;;;;;;49.70;16.67;;;;;;;2.44;83.19;101070.55;1673199;86;21169;-62
2021/12/16 08:44:36;;;;;;;40.10;16.60;;;;;;;2.47;83.10;101058.11;1670094;85;21254;-64
2021/12/16 08:47:09;;;;;;;70.35;17.85;;;;;;;2.47;83.01;101064.02;1679772;85;21142;-62
2021/12/16 08:49:38;;;;;;;40.70;15.95;;;;;;;2.42;82.84;101057.64;1663466;85;21194;-63
2021/12/16 08:52:15;;;;;;;46.55;16.93;;;;;;;2.37;82.96;101054.96;1652030;86;21159;-63
2021/12/16 08:54:44;;;;;;;33.30;13.58;;;;;;;2.39;83.27;101046.23;1677002;85;21743;-63
2021/12/16 08:57:13;;;;;;;59.13;19.95;;;;;;;2.38;83.26;101039.95;1667061;85;21212;-65
2021/12/16 08:59:43;;;;;;;58.98;17.50;;;;;;;2.39;83.43;101032.21;1666634;85;21592;-64
2021/12/16 09:02:13;;;;;;;54.48;18.07;;;;;;;2.48;84.11;101029.22;1697016;83;21146;-68
2021/12/16 09:04:43;;;;;;;60.35;18.65;;;;;;;2.59;84.18;101023.75;1698299;83;21336;-65
2021/12/16 09:07:14;;;;;;;65.75;21.70;;;;;;;2.63;83.88;101017.13;1741151;82;21381;-65
2021/12/16 09:09:45;;;;;;;42.33;18.15;;;;;;;2.61;83.75;101012.34;1741524;82;21135;-65
2021/12/16 09:15:10;;;;;;;35.60;15.72;;;;;;;2.56;83.69;100996.96;1741752;82;21130;-64
2021/12/16 09:17:42;;;;;;;38.73;16.23;;;;;;;2.58;83.76;100994.13;1741549;82;21570;-64
2021/12/16 09:20:12;;;;;;;36.55;17.05;;;;;;;2.60;83.73;100993.50;1739808;82;21233;-66
2021/12/16 09:22:41;;;;;;;38.30;18.98;;;;;;;2.58;83.79;100988.22;1731572;83;21586;-65
2021/12/16 09:25:12;;;;;;;50.45;21.97;;;;;;;2.55;83.72;100991.19;1731430;83;21612;-63
2021/12/16 09:27:43;;;;;;;40.05;17.02;;;;;;;2.54;83.93;100992.18;1731675;82;21178;-65
2021/12/16 09:30:16;;;;;;;40.12;17.25;;;;;;;2.58;84.06;100983.31;1731528;83;21253;-65
2021/12/16 09:32:45;;;;;;;41.28;17.02;;;;;;;2.62;84.01;100985.65;1731556;83;21274;-66
2021/12/16 09:35:14;;;;;;;40.90;17.70;;;;;;;2.59;83.95;100977.77;1724854;82;21164;-65
2021/12/16 09:37:44;;;;;;;41.40;19.07;;;;;;;2.56;84.16;100984.80;1718352;83;21150;-66
2021/12/16 09:40:19;;;;;;;47.58;17.40;;;;;;;2.55;84.28;100974.96;1740825;82;21201;-66
2021/12/16 09:42:50;;;;;;;37.10;15.95;;;;;;;2.55;84.31;100970.41;1749514;82;21158;-65
2021/12/16 09:45:21;;;;;;;38.45;16.48;;;;;;;2.62;84.44;100968.06;1749556;82;21169;-65
2021/12/16 09:47:52;;;;;;;41.68;17.35;;;;;;;2.64;84.42;100964.73;1749685;82;21180;-65
2021/12/16 09:50:25;;;;;;;40.67;16.32;;;;;;;2.65;84.49;100962.39;1749629;82;21669;-65
2021/12/16 09:52:54;;;;;;;42.67;16.75;;;;;;;2.66;84.51;100955.13;1749146;81;21894;-65
2021/12/16 09:55:23;;;;;;;38.48;16.00;;;;;;;2.66;84.60;100946.52;1749211;82;21257;-67
2021/12/16 09:57:53;;;;;;;35.88;15.55;;;;;;;2.73;84.70;100938.23;1743135;82;21190;-66
2021/12/16 10:00:25;;;;;;;36.83;14.73;;;;;;;2.78;84.66;100932.41;1731262;83;21528;-66
2021/12/16 10:02:55;;;;;;;37.40;16.10;;;;;;;2.79;84.59;100933.62;1677539;85;21162;-66
2021/12/16 10:05:26;;;;;;;44.03;16.40;;;;;;;2.76;84.70;100925.78;1665966;85;21221;-66
2021/12/16 10:07:56;;;;;;;48.42;20.17;;;;;;;2.82;85.08;100926.59;1671654;86;21145;-66
2021/12/16 10:10:26;;;;;;;44.70;18.40;;;;;;;2.88;85.04;100926.55;1670838;86;21125;-66
2021/12/16 10:13:01;;;;;;;38.17;15.48;;;;;;;2.90;84.93;100919.65;1671259;86;21168;-65
2021/12/16 10:18:10;;;;;;;37.45;17.65;;;;;;;2.95;85.01;100913.33;1671394;86;21198;-65
2021/12/16 10:20:53;;;;;;;46.53;19.52;;;;;;;2.97;84.99;100904.58;1690445;83;21696;-66
2021/12/16 10:23:40;;;;;;;45.12;17.20;;;;;;;3.00;85.04;100908.36;1703273;84;21142;-65
2021/12/16 10:26:23;;;;;;;39.25;17.17;;;;;;;3.03;85.06;100904.03;1705267;84;21598;-65
2021/12/16 10:28:58;;;;;;;44.40;18.05;;;;;;;3.05;84.95;100897.48;1705387;84;21213;-65
2021/12/16 10:31:34;;;;;;;41.05;17.57;;;;;;;3.05;84.99;100902.05;1705468;84;21167;-66
2021/12/16 10:34:07;;;;;;;36.53;16.77;;;;;;;3.04;84.99;100897.63;1705488;84;21222;-65
2021/12/16 10:36:45;;;;;;;37.75;16.48;;;;;;;2.98;85.02;100884.14;1674384;86;21262;-65
2021/12/16 10:39:22;;;;;;;39.75;18.50;;;;;;;2.97;85.17;100876.16;1674057;86;21286;-68
2021/12/16 10:41:58;;;;;;;38.40;18.55;;;;;;;2.96;85.31;100882.06;1692000;84;21186;-66
2021/12/16 10:44:33;;;;;;;37.73;15.75;;;;;;;3.01;85.54;100878.45;1703309;84;21142;-66
2021/12/16 10:47:14;;;;;;;41.90;18.00;;;;;;;3.04;85.62;100877.32;1703047;84;21245;-66
2021/12/16 10:49:49;;;;;;;42.62;17.42;;;;;;;3.07;85.68;100878.40;1703317;84;21613;-65
2021/12/16 10:52:27;;;;;;;36.03;14.90;;;;;;;3.10;85.74;100876.77;1703028;84;21229;-66
2021/12/16 10:54:58;;;;;;;39.65;16.20;;;;;;;3.14;85.81;100875.50;1733709;83;21247;-66
2021/12/16 10:57:30;;;;;;;38.28;16.50;;;;;;;3.17;85.94;100867.09;1735315;83;21123;-66
2021/12/16 11:00:03;;;;;;;38.15;15.48;;;;;;;3.25;86.32;100867.30;1649430;87;21680;-66
2021/12/16 11:02:35;;;;;;;39.63;15.20;;;;;;;3.30;86.18;100859.61;1649325;87;21151;-67
2021/12/16 11:05:14;;;;;;;36.70;16.75;;;;;;;3.34;86.03;100858.83;1649172;87;21274;-66
2021/12/16 11:07:49;;;;;;;29.85;13.28;;;;;;;3.37;86.00;100847.21;1644682;86;21354;-66
2021/12/16 11:10:29;;;;;;;32.42;14.50;;;;;;;3.37;85.93;100857.19;1643504;87;21167;-65
2021/12/16 11:13:04;;;;;;;36.10;15.60;;;;;;;3.35;85.94;100853.77;1644176;87;21585;-65
2021/12/16 11:15:52;;;;;;;34.03;15.43;;;;;;;3.34;85.98;100848.84;1643941;87;21644;-67
2021/12/16 11:18:24;;;;;;;39.08;15.90;;;;;;;3.37;86.10;100844.51;1696153;83;21095;-64
2021/12/16 11:21:03;;;;;;;41.35;20.20;;;;;;;3.41;86.10;100845.94;1732062;83;21190;-66
2021/12/16 11:23:40;;;;;;;35.60;16.12;;;;;;;3.47;86.14;100841.80;1732171;83;21135;-64
2021/12/16 11:26:21;;;;;;;42.50;16.17;;;;;;;3.49;86.08;100837.11;1732248;83;21147;-65
2021/12/16 11:28:54;;;;;;;45.95;17.32;;;;;;;3.52;86.11;100844.09;1731990;83;21155;-67
2021/12/16 11:31:31;;;;;;;39.18;16.60;;;;;;;3.53;86.18;100838.53;1732315;83;21227;-64
2021/12/16 11:34:06;;;;;;;34.70;14.93;;;;;;;3.53;86.06;100835.83;1733880;83;21562;-66
2021/12/16 11:36:40;;;;;;;38.70;15.80;;;;;;;3.53;86.13;100830.91;1735145;83;21617;-65
2021/12/16 11:39:19;;;;;;;36.00;15.93;;;;;;;3.51;86.26;100829.69;1735109;83;21167;-67
2021/12/16 11:41:52;;;;;;;40.33;15.10;;;;;;;3.52;86.30;100822.42;1735053;83;21177;-67
2021/12/16 11:44:34;;;;;;;38.65;15.95;;;;;;;3.52;86.39;100817.00;1735185;82;21143;-66
2021/12/16 11:47:23;;;;;;;40.65;16.37;;;;;;;3.54;86.47;100812.30;1735185;82;21378;-63
2021/12/16 11:50:02;;;;;;;42.05;17.27;;;;;;;3.59;86.68;100815.44;1735102;82;21083;-66
2021/12/16 11:52:35;;;;;;;43.10;16.30;;;;;;;3.61;86.69;100803.45;1733435;83;21694;-67
2021/12/16 11:55:12;;;;;;;39.60;16.20;;;;;;;3.65;86.62;100810.80;1731991;83;21170;-67
2021/12/16 11:57:51;;;;;;;39.88;16.27;;;;;;;3.65;86.62;100802.67;1732327;82;21628;-66
2021/12/16 12:00:24;;;;;;;37.42;15.30;;;;;;;3.66;86.67;100796.25;1732293;83;21666;-65
2021/12/16 12:02:57;;;;;;;42.15;17.25;;;;;;;3.68;86.74;100801.02;1732049;83;21027;-66
2021/12/16 12:05:44;;;;;;;39.42;15.75;;;;;;;3.69;86.71;100795.96;1732094;83;21262;-65
2021/12/16 12:08:20;;;;;;;43.13;16.30;;;;;;;3.69;86.64;100791.40;1684975;85;21083;-64
2021/12/16 12:11:09;;;;;;;79.12;32.53;;;;;;;3.69;86.73;100785.98;1729835;83;21024;-65
2021/12/16 12:13:46;;;;;;;42.70;17.45;;;;;;;3.71;86.83;100795.32;1732046;82;21529;-66
2021/12/16 12:16:21;;;;;;;40.03;16.30;;;;;;;3.72;86.81;100797.88;1732076;83;20992;-65
2021/12/16 12:18:59;;;;;;;47.15;18.42;;;;;;;3.70;86.87;100791.75;1732289;83;21082;-64
2021/12/16 12:21:35;;;;;;;45.15;17.05;;;;;;;3.71;86.95;100793.47;1732036;83;21167;-63
2021/12/16 12:24:38;;;;;;;48.85;18.73;;;;;;;3.75;86.91;100794.03;1732070;83;21095;-67
2021/12/16 12:27:11;;;;;;;44.48;18.20;;;;;;;3.73;86.96;100783.83;1732046;82;21159;-66
2021/12/16 12:29:52;;;;;;;46.02;17.25;;;;;;;3.70;86.98;100786.83;1731997;83;21102;-67
2021/12/16 12:32:34;;;;;;;42.03;16.85;;;;;;;3.67;87.12;100781.70;1732003;83;21035;-64
2021/12/16 12:35:21;;;;;;;42.17;18.65;;;;;;;3.69;87.23;100776.49;1731947;83;21029;-64
2021/12/16 12:37:56;;;;;;;49.15;20.60;;;;;;;3.80;88.46;100779.05;1732022;83;21106;-66
2021/12/16 12:40:33;;;;;;;49.93;19.75;;;;;;;3.86;88.17;100769.98;1732108;83;21047;-66
2021/12/16 12:43:04;;;;;;;48.25;18.25;;;;;;;3.85;87.97;100766.91;1731936;83;21008;-65
2021/12/16 12:45:37;;;;;;;46.28;17.90;;;;;;;3.86;87.89;100753.72;1732238;83;21043;-67
2021/12/16 12:48:13;;;;;;;49.33;20.17;;;;;;;3.88;87.74;100751.72;1702916;84;21111;-65
2021/12/16 12:50:44;;;;;;;49.38;19.25;;;;;;;3.89;87.76;100751.56;1702908;84;21071;-66
2021/12/16 12:53:23;;;;;;;48.95;19.27;;;;;;;3.89;87.65;100750.71;1702736;84;21545;-65
2021/12/16 12:55:56;;;;;;;51.15;19.60;;;;;;;3.89;87.80;100744.79;1702961;84;21051;-66
2021/12/16 12:58:27;;;;;;;49.83;18.50;;;;;;;3.93;87.78;100743.53;1702971;84;21470;-65
2021/12/16 13:01:05;;;;;;;53.17;19.07;;;;;;;3.97;87.69;100742.73;1702922;84;21215;-64
2021/12/16 13:03:37;;;;;;;47.38;18.02;;;;;;;3.98;87.60;100741.73;1702848;84;21149;-66
2021/12/16 13:06:17;;;;;;;51.58;19.32;;;;;;;3.99;87.62;100743.44;1731968;82;21063;-66
2021/12/16 13:08:50;;;;;;;53.68;18.55;;;;;;;3.95;87.46;100738.81;1752889;82;21010;-65
2021/12/16 13:11:28;;;;;;;45.08;17.65;;;;;;;3.87;87.40;100735.95;1753165;82;21985;-66
2021/12/16 13:14:18;;;;;;;53.10;18.55;;;;;;;3.87;87.54;100728.32;1752839;82;21062;-65
2021/12/16 13:17:15;;;;;;;59.18;22.73;;;;;;;3.87;87.63;100729.17;1753245;82;21468;-66
2021/12/16 13:31:32;;;;;;;53.30;21.48;;;;;;;3.85;88.10;100743.88;1677387;83;21568;-66
2021/12/16 13:34:01;;;;;;;48.05;19.42;;;;;;;3.82;88.17;100746.38;1688353;85;21034;-65
2021/12/16 13:36:42;;;;;;;50.83;18.87;;;;;;;3.85;88.37;100736.59;1687728;85;21540;-65
2021/12/16 13:39:14;;;;;;;51.48;19.15;;;;;;;3.87;88.43;100737.31;1687639;83;21142;-65
2021/12/16 13:42:00;;;;;;;50.92;19.37;;;;;;;3.87;88.50;100735.95;1686438;83;21117;-67
2021/12/16 13:44:55;;;;;;;47.15;19.07;;;;;;;3.89;88.55;100733.95;1683069;84;21018;-66
2021/12/16 14:05:30;;;;;;;50.33;19.30;;;;;;;3.97;88.71;100738.16;1715339;84;20991;-66
2021/12/16 14:08:00;;;;;;;45.50;17.70;;;;;;;3.97;88.87;100743.59;1729842;82;21508;-66
2021/12/16 14:10:55;;;;;;;45.83;17.80;;;;;;;4.01;88.91;100746.36;1749449;82;21050;-66
2021/12/16 14:14:10;;;;;;;49.18;17.10;;;;;;;4.00;88.95;100735.16;1657549;86;21497;-67
2021/12/16 14:25:16;;;;;;;41.55;17.35;;;;;;;3.99;89.20;100752.94;1646771;87;21095;-66
2021/12/16 14:47:28;;;;;;;32.28;14.38;;;;;;;4.22;91.75;100738.02;1731408;83;21612;-67
2021/12/16 14:49:48;;;;;;;30.40;14.07;;;;;;;4.30;91.61;100722.35;1728717;83;21604;-69
2021/12/16 14:52:28;;;;;;;31.40;12.65;;;;;;;4.25;91.40;100732.29;1731352;83;21027;-68
2021/12/16 14:55:03;;;;;;;21.77;10.53;;;;;;;4.22;91.37;100727.66;1724882;82;21468;-69
2021/12/16 14:57:38;;;;;;;24.65;12.65;;;;;;;4.19;91.40;100722.54;1730687;82;21044;-66
2021/12/16 15:00:28;;;;;;;24.72;12.07;;;;;;;4.12;91.35;100731.27;1730414;83;21036;-66
2021/12/16 15:03:11;;;;;;;22.90;11.88;;;;;;;4.09;91.45;100727.50;1731333;83;21207;-66